Terminal Aerodrome Forecast
Issued by NWS

Home | Current Version | Previous Version | Text Only | Print | Product List | Glossary On
Versions: 1 2 3 4 5 6 7 8 9 10 11 12 13 14 15 16 17 18 19 20 21 22 23 24 25 26 27 28 29 30 31 32 33 34 35 36 37 38 39 40
748
FTUS41 KPHI 200811 AAA
TAFPNE
TAF AMD
KPNE 200811Z 2008/2106 16006KT 6SM -SHRA BR BKN015 OVC030
     FM201000 16012G20KT 5SM -SHRA BR OVC010
     FM201200 17012KT P6SM BKN025
     FM201800 17012G20KT P6SM BKN200
     FM210000 22007KT P6SM SCT250=

USA.gov is the U.S. government's official web portal to all federal, state and local government web resources and services.